Time;durP1;ratioP1;P1;durP2;ratioP2;P2;SDS_P1;SDS_P2;PMS_P1;PMS_P2;Temp;Humidity;BMP_temperature;BMP_pressure;BME280_temperature;BME280_humidity;BME280_pressure;Samples;Min_cycle;Max_cycle;Signal;HPM_P1;HPM_P2
2023/01/20 00:01:25;;;;;;;9.02;5.15;;;3.00;82.70;;;;;;5075243;28;20033;-12
2023/01/20 00:03:53;;;;;;;9.40;5.45;;;3.00;82.70;;;;;;5075139;28;20033;-12
2023/01/20 00:06:20;;;;;;;10.90;5.75;;;3.00;82.70;;;;;;5074904;28;20033;-12
2023/01/20 00:08:51;;;;;;;7.95;5.00;;;3.00;82.80;;;;;;5074872;28;20492;-12
2023/01/20 00:11:17;;;;;;;7.97;5.10;;;3.00;82.80;;;;;;5075068;28;20025;-12
2023/01/20 00:13:42;;;;;;;14.85;7.25;;;3.00;82.90;;;;;;5074924;28;20020;-12
2023/01/20 00:16:10;;;;;;;10.43;5.85;;;3.00;82.90;;;;;;5075191;28;20035;-12
2023/01/20 00:18:38;;;;;;;9.45;5.63;;;3.00;82.90;;;;;;5074785;28;20024;-12
2023/01/20 00:21:06;;;;;;;10.27;5.57;;;3.00;82.90;;;;;;5074548;28;20032;-12
2023/01/20 00:23:32;;;;;;;9.75;5.30;;;3.00;83.00;;;;;;5074922;28;20150;-14
2023/01/20 00:26:02;;;;;;;9.38;5.38;;;3.00;83.00;;;;;;5074194;28;20415;-13
2023/01/20 00:28:27;;;;;;;10.25;5.38;;;3.00;83.00;;;;;;5074678;28;20021;-13
2023/01/20 00:30:53;;;;;;;8.23;5.07;;;3.00;83.10;;;;;;5074475;28;20028;-13
2023/01/20 00:33:19;;;;;;;9.57;5.22;;;3.10;83.20;;;;;;5075077;28;20035;-13
2023/01/20 00:35:45;;;;;;;8.75;5.35;;;3.10;83.00;;;;;;5074003;28;20021;-13
2023/01/20 00:38:11;;;;;;;8.77;5.50;;;3.10;82.90;;;;;;5074904;28;20021;-12
2023/01/20 00:40:37;;;;;;;10.07;5.47;;;3.10;82.90;;;;;;5074665;28;20025;-12
2023/01/20 00:43:03;;;;;;;11.98;5.82;;;3.20;82.90;;;;;;5074016;28;20025;-13
2023/01/20 00:45:29;;;;;;;10.70;6.00;;;3.20;82.80;;;;;;5074327;28;20124;-12
2023/01/20 00:47:55;;;;;;;10.10;5.78;;;3.20;82.70;;;;;;5074730;28;20492;-12
2023/01/20 00:50:21;;;;;;;11.82;6.28;;;3.20;82.70;;;;;;5074383;28;20035;-11
2023/01/20 00:52:47;;;;;;;9.80;5.28;;;3.20;82.60;;;;;;5073874;28;20021;-12
2023/01/20 00:55:13;;;;;;;9.70;5.38;;;3.20;82.60;;;;;;5074085;28;20020;-12
2023/01/20 00:57:39;;;;;;;9.70;5.43;;;3.20;82.60;;;;;;5074008;28;20025;-11
2023/01/20 01:00:05;;;;;;;9.63;5.75;;;3.20;82.60;;;;;;5074030;28;20024;-13
2023/01/20 01:02:38;;;;;;;11.20;5.80;;;3.20;82.50;;;;;;5074322;28;20173;-12
2023/01/20 01:05:05;;;;;;;9.85;5.30;;;3.20;82.60;;;;;;5073639;28;20180;-12
2023/01/20 01:07:30;;;;;;;9.02;5.32;;;3.20;82.60;;;;;;5074272;28;20108;-12
2023/01/20 01:09:56;;;;;;;9.48;6.03;;;3.20;82.60;;;;;;5074066;28;20459;-12
2023/01/20 01:12:23;;;;;;;8.63;5.00;;;3.20;82.40;;;;;;5073862;28;20025;-12
2023/01/20 01:14:48;;;;;;;10.15;5.47;;;3.30;82.50;;;;;;5073752;28;20044;-12
2023/01/20 01:17:14;;;;;;;8.55;4.95;;;3.20;82.50;;;;;;5073769;28;20388;-12
2023/01/20 01:19:40;;;;;;;7.32;3.95;;;3.20;81.60;;;;;;5073850;28;20523;-12
2023/01/20 01:22:06;;;;;;;4.75;3.17;;;3.30;80.50;;;;;;5073591;28;20115;-13
2023/01/20 01:24:32;;;;;;;4.30;2.80;;;3.40;79.50;;;;;;5055308;28;20017;-11
2023/01/20 01:26:58;;;;;;;4.03;2.97;;;3.50;79.90;;;;;;5055864;28;20503;-12
2023/01/20 01:29:24;;;;;;;3.80;2.85;;;3.60;80.10;;;;;;5073396;28;20395;-12
2023/01/20 01:31:50;;;;;;;4.82;2.83;;;3.60;80.20;;;;;;5073658;28;20035;-12
2023/01/20 01:34:16;;;;;;;3.53;2.67;;;3.60;80.20;;;;;;5073701;28;20090;-12
2023/01/20 01:36:42;;;;;;;4.90;2.70;;;3.60;80.10;;;;;;5073446;28;20209;-12
2023/01/20 01:39:08;;;;;;;4.45;2.80;;;3.70;80.30;;;;;;5073412;28;20033;-13
2023/01/20 01:41:34;;;;;;;3.33;2.40;;;3.70;80.10;;;;;;5073696;28;20477;-12
2023/01/20 01:44:09;;;;;;;5.00;2.35;;;3.70;80.30;;;;;;5073387;28;20513;-12
2023/01/20 01:46:36;;;;;;;3.70;2.55;;;3.70;80.50;;;;;;5072349;28;20032;-12
2023/01/20 01:49:25;;;;;;;3.72;2.58;;;3.60;80.40;;;;;;5072923;28;20032;-12
2023/01/20 01:52:07;;;;;;;5.38;2.90;;;3.60;80.50;;;;;;5073416;28;20028;-12
2023/01/20 01:54:41;;;;;;;5.25;2.95;;;3.60;80.50;;;;;;5073454;28;20081;-12
2023/01/20 01:57:08;;;;;;;4.38;2.75;;;3.60;80.70;;;;;;5072871;28;20024;-11
2023/01/20 01:59:36;;;;;;;4.18;2.90;;;3.60;80.90;;;;;;5073196;28;20143;-12
2023/01/20 02:02:02;;;;;;;4.68;2.80;;;3.50;81.10;;;;;;5073221;28;20042;-12
2023/01/20 02:04:30;;;;;;;5.47;3.17;;;3.50;81.30;;;;;;5054960;28;20025;-12
2023/01/20 02:07:03;;;;;;;3.00;2.55;;;3.50;81.20;;;;;;5072963;28;20029;-12
2023/01/20 02:09:30;;;;;;;4.43;2.63;;;3.50;80.80;;;;;;5072934;28;20393;-13
2023/01/20 02:12:01;;;;;;;4.45;2.80;;;3.50;80.90;;;;;;5073042;28;20047;-13
2023/01/20 02:14:34;;;;;;;4.55;2.63;;;3.60;80.80;;;;;;5072599;28;20032;-12
2023/01/20 02:17:14;;;;;;;5.45;2.75;;;3.60;80.70;;;;;;5072858;28;20479;-12
2023/01/20 02:20:16;;;;;;;4.03;2.72;;;3.60;80.80;;;;;;5072665;28;20107;-12
2023/01/20 02:22:53;;;;;;;3.75;2.60;;;3.60;80.80;;;;;;5072706;28;20036;-11
2023/01/20 02:25:19;;;;;;;4.45;2.72;;;3.60;80.90;;;;;;5072575;28;20048;-12
2023/01/20 02:27:48;;;;;;;4.47;3.00;;;3.60;80.70;;;;;;5073011;28;20025;-13
2023/01/20 02:30:55;;;;;;;4.25;3.00;;;3.60;80.80;;;;;;5072369;28;20028;-13
2023/01/20 02:33:23;;;;;;;3.70;2.75;;;3.60;80.70;;;;;;5016795;28;20028;-12
2023/01/20 02:35:59;;;;;;;5.22;3.03;;;3.60;80.40;;;;;;5072717;28;20032;-13
2023/01/20 02:38:31;;;;;;;4.57;2.95;;;3.60;80.60;;;;;;5072638;28;20060;-13
2023/01/20 02:41:00;;;;;;;5.00;3.15;;;3.60;80.20;;;;;;5072654;28;20092;-12
2023/01/20 02:43:46;;;;;;;3.58;2.90;;;3.60;80.60;;;;;;5072422;28;20029;-13
2023/01/20 02:46:25;;;;;;;4.45;3.03;;;3.60;80.00;;;;;;5072611;28;20052;-12
2023/01/20 02:49:04;;;;;;;3.53;2.63;;;3.60;80.50;;;;;;5072375;28;20025;-12
2023/01/20 02:51:43;;;;;;;5.53;3.00;;;3.50;80.50;;;;;;5072780;28;20103;-12
2023/01/20 02:54:13;;;;;;;5.43;3.35;;;3.60;80.60;;;;;;5072817;28;20128;-11
2023/01/20 02:56:39;;;;;;;5.88;3.05;;;3.50;80.30;;;;;;5072418;28;20017;-13
2023/01/20 02:59:10;;;;;;;6.00;3.53;;;3.60;79.80;;;;;;5076217;28;20086;-12
2023/01/20 03:01:42;;;;;;;5.03;3.20;;;3.60;79.80;;;;;;5076284;28;20056;-11
2023/01/20 03:04:12;;;;;;;6.40;3.53;;;3.60;80.00;;;;;;5076304;28;20038;-12
2023/01/20 03:10:05;;;;;;;6.03;3.67;;;3.50;79.80;;;;;;5076542;28;20550;-12
2023/01/20 03:12:47;;;;;;;5.15;3.35;;;3.50;79.90;;;;;;5076275;28;20021;-13
2023/01/20 03:15:14;;;;;;;8.48;3.90;;;3.50;80.30;;;;;;5076042;28;20031;-12
2023/01/20 03:17:40;;;;;;;5.95;3.40;;;3.50;80.40;;;;;;5076318;28;20024;-13
2023/01/20 03:20:07;;;;;;;7.25;3.60;;;3.40;80.60;;;;;;5075951;28;20040;-13
2023/01/20 03:22:33;;;;;;;6.22;3.67;;;3.40;80.80;;;;;;5075894;28;20035;-12
2023/01/20 03:24:59;;;;;;;6.13;3.35;;;3.50;81.10;;;;;;5075249;28;20125;-13
2023/01/20 03:27:26;;;;;;;5.72;3.40;;;3.40;81.10;;;;;;5076594;28;20106;-14
2023/01/20 03:29:52;;;;;;;5.43;3.40;;;3.40;81.30;;;;;;5075708;28;20029;-13
2023/01/20 03:32:25;;;;;;;5.55;3.25;;;3.40;81.50;;;;;;5076340;28;20028;-13
2023/01/20 03:34:54;;;;;;;4.50;3.30;;;3.40;81.50;;;;;;5075561;28;20481;-13
2023/01/20 03:37:21;;;;;;;5.22;3.30;;;3.30;81.60;;;;;;5075973;28;20024;-13
2023/01/20 03:39:47;;;;;;;5.38;3.13;;;3.30;81.70;;;;;;5075877;28;20034;-13
2023/01/20 03:42:24;;;;;;;4.45;3.03;;;3.30;81.80;;;;;;5076227;28;20059;-13
2023/01/20 03:45:05;;;;;;;3.80;2.88;;;3.30;81.80;;;;;;5075524;28;20025;-13
2023/01/20 03:47:55;;;;;;;5.45;3.20;;;3.20;81.90;;;;;;5075540;28;20104;-12
2023/01/20 03:50:39;;;;;;;4.03;2.78;;;3.20;82.00;;;;;;5075654;28;20056;-13
2023/01/20 03:53:23;;;;;;;4.65;2.92;;;3.20;82.10;;;;;;5075596;28;20021;-14
2023/01/20 03:55:57;;;;;;;4.63;2.90;;;3.20;82.10;;;;;;5057432;28;20028;-13
2023/01/20 03:58:33;;;;;;;4.20;2.88;;;3.20;82.20;;;;;;5075281;28;20033;-13
2023/01/20 04:01:03;;;;;;;5.07;3.13;;;3.10;82.20;;;;;;5074988;28;20028;-13
2023/01/20 04:03:32;;;;;;;5.40;3.33;;;3.20;82.20;;;;;;5075162;28;20021;-13
2023/01/20 04:06:02;;;;;;;4.82;3.22;;;3.20;82.30;;;;;;5057086;28;20435;-13
2023/01/20 04:08:33;;;;;;;5.60;3.38;;;3.20;82.30;;;;;;5074834;28;20029;-12
2023/01/20 04:11:04;;;;;;;5.90;3.10;;;3.20;82.20;;;;;;5074930;28;20046;-13
2023/01/20 04:13:30;;;;;;;5.93;3.47;;;3.20;82.10;;;;;;5075148;28;20021;-13
2023/01/20 04:15:58;;;;;;;5.78;3.33;;;3.20;82.10;;;;;;5075088;28;20028;-13
2023/01/20 04:18:23;;;;;;;5.20;3.40;;;3.20;82.10;;;;;;5075222;28;20024;-13
2023/01/20 04:21:00;;;;;;;5.50;3.25;;;3.10;82.00;;;;;;5074645;28;20533;-14
2023/01/20 04:23:31;;;;;;;6.30;3.58;;;3.20;82.10;;;;;;5075234;28;20028;-13
2023/01/20 04:25:57;;;;;;;5.57;3.47;;;3.20;82.00;;;;;;5074792;28;20040;-13
2023/01/20 04:28:23;;;;;;;5.78;3.55;;;3.10;82.00;;;;;;5056957;28;20090;-13
2023/01/20 04:30:49;;;;;;;6.78;3.40;;;3.10;82.00;;;;;;5074393;28;20427;-14
2023/01/20 04:33:15;;;;;;;6.30;3.45;;;3.10;82.00;;;;;;5074693;28;20056;-12
2023/01/20 04:35:41;;;;;;;6.10;3.60;;;3.10;82.00;;;;;;5074866;28;20495;-13
2023/01/20 04:38:06;;;;;;;5.15;3.45;;;3.00;82.10;;;;;;5074612;28;20039;-12
2023/01/20 04:40:32;;;;;;;4.90;3.28;;;3.00;82.10;;;;;;5074556;28;20074;-13
2023/01/20 04:42:58;;;;;;;5.43;3.25;;;3.00;82.10;;;;;;5074210;28;20071;-13
2023/01/20 04:45:24;;;;;;;5.85;3.35;;;3.00;82.00;;;;;;5074499;28;20037;-12
2023/01/20 04:47:50;;;;;;;5.90;3.67;;;2.90;82.10;;;;;;5074470;28;20024;-13
2023/01/20 04:50:16;;;;;;;6.72;4.00;;;2.90;82.20;;;;;;5056327;28;20028;-12
2023/01/20 04:52:42;;;;;;;5.63;3.42;;;2.80;82.10;;;;;;5074450;28;20051;-12
2023/01/20 04:55:09;;;;;;;5.05;2.95;;;2.80;82.10;;;;;;5074059;28;20024;-12
2023/01/20 04:57:35;;;;;;;5.80;3.65;;;2.80;82.10;;;;;;5074277;28;20024;-12
2023/01/20 05:00:01;;;;;;;6.22;3.72;;;2.80;81.90;;;;;;5074231;28;20031;-13
2023/01/20 05:02:27;;;;;;;5.72;3.70;;;2.80;81.90;;;;;;5074103;28;20024;-13
2023/01/20 05:04:53;;;;;;;6.28;3.63;;;2.90;81.90;;;;;;5074011;28;20045;-13
2023/01/20 05:07:18;;;;;;;6.93;4.00;;;2.80;81.80;;;;;;5074320;28;20043;-13
2023/01/20 05:09:44;;;;;;;4.03;2.95;;;2.80;81.70;;;;;;5073945;28;20393;-12
2023/01/20 05:12:10;;;;;;;5.43;3.50;;;2.90;81.70;;;;;;5073844;28;20029;-12
2023/01/20 05:14:35;;;;;;;6.03;3.88;;;2.80;81.80;;;;;;5073829;28;20032;-12
2023/01/20 05:17:01;;;;;;;6.55;3.97;;;2.80;82.00;;;;;;5055425;28;20024;-13
2023/01/20 05:19:27;;;;;;;6.05;3.65;;;2.80;82.00;;;;;;5073741;28;20028;-13
2023/01/20 05:21:53;;;;;;;7.05;4.13;;;2.80;82.00;;;;;;5055562;28;20021;-14
2023/01/20 05:24:18;;;;;;;7.72;4.53;;;2.80;82.00;;;;;;5073720;28;20043;-13
2023/01/20 05:26:44;;;;;;;7.65;4.20;;;2.80;82.00;;;;;;5073132;28;20049;-13
2023/01/20 05:29:10;;;;;;;8.00;4.45;;;2.70;82.10;;;;;;5072661;28;20021;-13
2023/01/20 05:31:37;;;;;;;9.65;5.07;;;2.70;82.10;;;;;;5073284;28;20067;-13
2023/01/20 05:34:03;;;;;;;8.95;3.92;;;2.70;82.00;;;;;;5073489;28;20093;-14
2023/01/20 05:36:29;;;;;;;7.68;3.40;;;2.70;82.00;;;;;;5073591;28;20100;-13
2023/01/20 05:38:55;;;;;;;14.50;6.28;;;2.70;82.10;;;;;;5072878;28;20020;-13
2023/01/20 05:41:21;;;;;;;10.82;5.97;;;2.60;82.10;;;;;;5073230;28;20032;-13
2023/01/20 05:43:46;;;;;;;10.90;5.22;;;2.60;82.00;;;;;;5073086;28;20078;-12
2023/01/20 05:46:12;;;;;;;7.75;4.78;;;2.60;82.10;;;;;;5072992;28;20035;-12
2023/01/20 05:48:38;;;;;;;8.18;4.65;;;2.60;82.20;;;;;;5073388;28;20024;-13
2023/01/20 05:51:04;;;;;;;9.27;5.03;;;2.50;82.20;;;;;;5072890;28;20097;-14
2023/01/20 05:53:30;;;;;;;8.77;4.50;;;2.50;82.30;;;;;;5073234;28;20028;-13
2023/01/20 05:56:00;;;;;;;9.02;4.72;;;2.40;82.30;;;;;;5072962;28;20028;-13
2023/01/20 05:58:26;;;;;;;11.25;5.13;;;2.40;82.40;;;;;;5073220;28;20056;-13
2023/01/20 06:00:52;;;;;;;10.38;5.45;;;2.40;82.40;;;;;;5072962;28;20048;-12
2023/01/20 06:03:18;;;;;;;9.55;4.65;;;2.40;82.40;;;;;;5072925;28;20511;-12
2023/01/20 06:05:43;;;;;;;7.88;4.43;;;2.40;82.40;;;;;;5072840;28;20043;-12
2023/01/20 06:08:09;;;;;;;9.20;5.32;;;2.30;82.50;;;;;;5072744;28;20032;-14
2023/01/20 06:10:35;;;;;;;10.40;5.10;;;2.30;82.40;;;;;;5072796;28;20025;-13
2023/01/20 06:13:01;;;;;;;11.02;5.45;;;2.20;82.60;;;;;;5072644;28;20028;-14
2023/01/20 06:15:26;;;;;;;9.65;5.05;;;2.20;82.60;;;;;;5072596;28;20024;-13
2023/01/20 06:17:54;;;;;;;8.80;5.05;;;2.20;82.60;;;;;;5072597;28;20073;-13
2023/01/20 06:20:20;;;;;;;10.02;5.10;;;2.20;82.60;;;;;;5072960;28;20037;-13
2023/01/20 06:22:46;;;;;;;9.70;5.35;;;2.10;82.60;;;;;;5072951;28;20137;-12
2023/01/20 06:25:11;;;;;;;11.65;6.45;;;2.10;82.60;;;;;;5072792;28;20476;-13
2023/01/20 06:27:37;;;;;;;9.30;5.10;;;2.10;82.80;;;;;;5072928;28;20068;-12
2023/01/20 06:30:07;;;;;;;7.80;4.68;;;2.10;82.80;;;;;;5072286;28;20028;-13
2023/01/20 06:32:33;;;;;;;8.07;4.45;;;2.10;82.70;;;;;;5071869;28;20481;-12
2023/01/20 06:34:58;;;;;;;8.63;4.72;;;2.00;82.60;;;;;;5072443;28;20020;-12
2023/01/20 06:37:24;;;;;;;9.40;4.35;;;2.00;82.60;;;;;;5072542;28;20083;-12
2023/01/20 06:39:50;;;;;;;8.73;4.30;;;2.00;82.60;;;;;;5073122;28;20040;-12
2023/01/20 06:42:16;;;;;;;8.30;4.30;;;1.90;82.50;;;;;;5072687;28;20522;-12
2023/01/20 06:44:41;;;;;;;9.45;4.65;;;1.90;82.40;;;;;;5072305;28;20020;-13
2023/01/20 06:47:07;;;;;;;10.18;4.85;;;1.90;82.60;;;;;;5072241;28;20082;-13
2023/01/20 06:49:33;;;;;;;7.88;4.55;;;1.90;82.60;;;;;;5072543;28;20025;-12
2023/01/20 06:51:59;;;;;;;9.82;4.95;;;1.90;82.70;;;;;;5072625;28;20056;-12
2023/01/20 06:54:26;;;;;;;10.98;5.20;;;1.90;82.60;;;;;;5054332;28;20459;-12
2023/01/20 06:56:52;;;;;;;8.40;5.10;;;1.90;82.60;;;;;;5072489;28;20025;-13
2023/01/20 06:59:17;;;;;;;12.05;5.70;;;1.90;82.70;;;;;;5054591;28;20380;-12
2023/01/20 07:01:43;;;;;;;9.85;5.43;;;2.00;82.80;;;;;;5072499;28;20037;-12
2023/01/20 07:04:13;;;;;;;10.63;6.28;;;2.00;82.70;;;;;;5072283;28;20477;-12
2023/01/20 07:06:40;;;;;;;12.63;6.38;;;2.00;82.70;;;;;;5072074;28;20041;-13
2023/01/20 07:09:09;;;;;;;11.77;5.85;;;2.00;82.70;;;;;;5072182;28;20178;-12
2023/01/20 07:11:36;;;;;;;9.23;5.80;;;2.10;82.70;;;;;;5072279;28;20033;-12
2023/01/20 07:14:03;;;;;;;11.10;6.03;;;2.10;82.70;;;;;;5072329;28;20109;-13
2023/01/20 07:16:29;;;;;;;11.45;6.35;;;2.10;82.70;;;;;;5072045;28;20025;-12
2023/01/20 07:18:55;;;;;;;10.65;5.80;;;2.20;82.50;;;;;;5054006;28;20492;-12
2023/01/20 07:21:21;;;;;;;10.85;5.95;;;2.20;82.30;;;;;;5072318;28;20023;-13
2023/01/20 07:23:47;;;;;;;10.75;5.80;;;2.30;82.30;;;;;;5072231;28;20114;-13
2023/01/20 07:26:19;;;;;;;10.43;5.78;;;2.40;82.10;;;;;;5071591;28;20052;-11
2023/01/20 07:28:45;;;;;;;11.57;5.85;;;2.50;81.80;;;;;;5072239;28;20024;-11
2023/01/20 07:31:23;;;;;;;11.27;6.00;;;2.60;81.80;;;;;;5071932;28;20125;-12
2023/01/20 07:33:49;;;;;;;12.20;6.72;;;2.70;81.60;;;;;;5071956;28;20087;-13
2023/01/20 07:37:01;;;;;;;11.88;6.28;;;2.80;81.50;;;;;;5105398;27;20944;-11
2023/01/20 07:39:27;;;;;;;13.65;6.93;;;2.90;81.00;;;;;;5089959;28;20513;-11
2023/01/20 07:41:53;;;;;;;11.13;6.10;;;2.90;81.20;;;;;;5089938;28;20056;-11
2023/01/20 07:44:18;;;;;;;14.95;8.98;;;2.90;81.10;;;;;;5090013;28;20056;-11
2023/01/20 07:46:44;;;;;;;17.77;9.52;;;3.00;81.00;;;;;;5089920;28;20109;-12
2023/01/20 07:49:10;;;;;;;17.08;10.10;;;3.00;80.90;;;;;;5089560;28;20101;-11
2023/01/20 07:51:36;;;;;;;18.30;9.75;;;3.10;80.90;;;;;;5090118;28;20032;-12
2023/01/20 07:54:03;;;;;;;18.55;10.43;;;3.10;81.00;;;;;;5090108;28;20024;-11
2023/01/20 07:56:30;;;;;;;17.88;11.07;;;3.10;81.00;;;;;;5089841;28;20115;-11
2023/01/20 07:58:56;;;;;;;17.42;11.02;;;3.10;81.10;;;;;;5089639;28;20025;-11
2023/01/20 08:01:30;;;;;;;16.35;9.93;;;3.20;81.10;;;;;;5089692;28;20086;-11
2023/01/20 08:03:59;;;;;;;18.23;10.48;;;3.20;81.20;;;;;;5088345;28;20392;-11
2023/01/20 08:06:26;;;;;;;17.88;9.27;;;3.30;81.40;;;;;;5089741;28;20484;-12
2023/01/20 08:08:52;;;;;;;15.10;8.68;;;3.40;81.30;;;;;;5089592;28;20024;-11
2023/01/20 08:11:20;;;;;;;15.65;9.05;;;3.40;81.10;;;;;;5089326;28;20033;-11
2023/01/20 08:13:46;;;;;;;12.48;7.78;;;3.50;81.10;;;;;;5089446;28;20024;-11
2023/01/20 08:16:14;;;;;;;12.90;7.05;;;3.60;81.10;;;;;;5089205;28;20066;-11
2023/01/20 08:18:40;;;;;;;10.30;6.05;;;3.70;80.70;;;;;;5089275;28;20092;-12
2023/01/20 08:21:07;;;;;;;10.32;6.00;;;3.80;80.40;;;;;;5089000;28;20131;-12
2023/01/20 08:23:36;;;;;;;11.68;6.47;;;3.90;80.10;;;;;;5089446;28;20035;-12
2023/01/20 08:26:05;;;;;;;11.60;6.15;;;4.00;80.20;;;;;;5089664;28;20032;-11
2023/01/20 08:28:32;;;;;;;12.07;6.07;;;4.20;79.50;;;;;;5089086;28;20025;-11
2023/01/20 08:31:09;;;;;;;11.88;7.35;;;4.20;79.40;;;;;;5088672;28;20488;-11
2023/01/20 08:33:35;;;;;;;9.52;5.78;;;4.40;78.30;;;;;;5089040;28;20193;-12
2023/01/20 08:36:13;;;;;;;12.57;6.32;;;4.40;78.50;;;;;;5103903;28;20051;-12
2023/01/20 08:38:40;;;;;;;11.00;6.07;;;4.50;74.20;;;;;;5109679;28;20024;-12
2023/01/20 08:41:08;;;;;;;9.02;5.68;;;4.60;75.60;;;;;;5109222;28;20057;-12
2023/01/20 08:43:34;;;;;;;8.43;4.90;;;4.60;76.80;;;;;;5109463;28;20034;-11
2023/01/20 08:46:02;;;;;;;9.40;5.38;;;4.70;75.70;;;;;;5106415;28;20016;-12
2023/01/20 08:48:28;;;;;;;9.25;6.07;;;4.70;76.60;;;;;;5095466;28;20024;-12
2023/01/20 08:50:55;;;;;;;8.15;4.85;;;4.80;75.90;;;;;;5095582;28;20032;-12
2023/01/20 08:53:20;;;;;;;7.80;5.28;;;4.80;74.40;;;;;;5095907;28;20020;-12
2023/01/20 08:55:57;;;;;;;9.32;5.38;;;4.80;76.30;;;;;;5095604;28;20104;-12
2023/01/20 08:58:24;;;;;;;9.95;5.82;;;4.90;74.90;;;;;;5095573;28;20032;-12
2023/01/20 09:00:50;;;;;;;9.68;5.15;;;4.90;73.30;;;;;;5095276;28;20036;-13
2023/01/20 09:03:16;;;;;;;9.07;5.47;;;4.90;74.90;;;;;;5095526;28;20028;-12
2023/01/20 09:05:42;;;;;;;10.50;6.20;;;4.90;74.60;;;;;;5095360;28;20070;-12
2023/01/20 09:08:08;;;;;;;8.68;4.85;;;4.90;73.30;;;;;;5095062;28;20078;-11
2023/01/20 09:10:34;;;;;;;10.45;5.75;;;4.90;74.40;;;;;;5095014;28;20024;-12
2023/01/20 09:13:00;;;;;;;9.93;5.22;;;4.90;73.80;;;;;;5094835;28;20035;-12
2023/01/20 09:15:26;;;;;;;9.55;5.22;;;5.00;74.80;;;;;;5094865;28;20040;-12
2023/01/20 09:17:52;;;;;;;9.45;5.13;;;5.00;72.60;;;;;;5095114;28;20038;-12
2023/01/20 09:20:18;;;;;;;7.35;4.63;;;5.00;73.90;;;;;;5094790;28;20543;-12
2023/01/20 09:22:44;;;;;;;8.13;4.80;;;5.10;72.80;;;;;;5094771;28;20024;-12
2023/01/20 09:25:10;;;;;;;8.90;4.80;;;5.10;72.50;;;;;;5094591;28;20107;-11
2023/01/20 09:27:36;;;;;;;6.50;4.68;;;5.20;73.70;;;;;;5094953;28;20035;-11
2023/01/20 09:30:03;;;;;;;8.02;4.60;;;5.30;72.80;;;;;;5094641;28;20028;-12
2023/01/20 09:32:29;;;;;;;7.82;4.55;;;5.30;74.10;;;;;;5094424;28;20028;-12
2023/01/20 09:34:55;;;;;;;7.68;4.47;;;5.30;73.20;;;;;;5094462;28;20411;-11
2023/01/20 09:47:18;;;;;;;6.97;4.47;;;5.40;72.40;;;;;;5094759;28;20050;-12
2023/01/20 09:55:27;;;;;;;9.20;4.90;;;5.50;71.20;;;;;;5094613;28;20509;-11
2023/01/20 09:58:20;;;;;;;8.60;4.85;;;5.70;71.00;;;;;;5093382;28;20043;-11
2023/01/20 10:00:52;;;;;;;9.32;5.55;;;5.80;71.50;;;;;;5072441;28;20028;-15
2023/01/20 10:03:35;;;;;;;8.93;4.60;;;5.90;72.00;;;;;;5094180;28;20028;-12
2023/01/20 10:06:10;;;;;;;8.63;5.15;;;6.00;70.80;;;;;;5093992;28;20065;-12
2023/01/20 10:08:58;;;;;;;11.65;5.22;;;6.10;69.50;;;;;;5094293;28;20031;-12
2023/01/20 10:11:27;;;;;;;9.05;4.90;;;6.10;70.70;;;;;;5094477;28;20035;-10
2023/01/20 10:14:11;;;;;;;11.82;6.07;;;6.10;71.60;;;;;;5094018;28;20111;-11
2023/01/20 10:19:00;;;;;;;8.10;4.75;;;6.10;69.50;;;;;;5088530;27;20887;-11
2023/01/20 10:22:04;;;;;;;9.30;4.55;;;6.00;67.70;;;;;;5090051;28;20037;-11
2023/01/20 10:24:51;;;;;;;7.90;4.47;;;6.00;70.30;;;;;;5080059;28;20373;-12
2023/01/20 10:27:18;;;;;;;9.32;5.00;;;6.00;69.50;;;;;;5089940;28;20028;-12
2023/01/20 10:29:48;;;;;;;8.90;4.32;;;6.00;69.00;;;;;;5090079;28;20027;-12
2023/01/20 10:32:35;;;;;;;9.32;5.35;;;5.90;68.50;;;;;;5089779;28;20038;-11
2023/01/20 10:35:16;;;;;;;8.30;4.57;;;5.90;69.10;;;;;;5089653;28;20056;-12
2023/01/20 10:37:42;;;;;;;8.75;4.50;;;5.90;68.20;;;;;;5089975;28;20020;-12
2023/01/20 10:40:17;;;;;;;7.57;4.53;;;6.00;69.40;;;;;;5089764;28;20024;-12
2023/01/20 10:42:48;;;;;;;9.23;5.57;;;6.10;69.80;;;;;;5089602;28;20365;-11
2023/01/20 10:45:27;;;;;;;7.32;4.50;;;6.20;68.90;;;;;;5089361;28;20024;-12
2023/01/20 10:48:19;;;;;;;8.52;4.80;;;6.20;69.50;;;;;;5090152;28;20052;-12
2023/01/20 10:51:04;;;;;;;8.45;4.82;;;6.20;67.60;;;;;;5089969;28;20570;-11
2023/01/20 10:54:08;;;;;;;7.30;4.43;;;6.20;67.60;;;;;;5089684;28;20024;-12
2023/01/20 10:56:42;;;;;;;10.45;6.22;;;6.20;68.00;;;;;;5027245;28;20034;-12
2023/01/20 10:59:27;;;;;;;7.63;4.70;;;6.10;68.40;;;;;;5026931;28;20045;-11
2023/01/20 11:01:59;;;;;;;8.38;4.70;;;6.00;66.70;;;;;;5026942;28;20033;-11
2023/01/20 11:04:26;;;;;;;9.18;5.10;;;5.90;67.50;;;;;;5027098;28;20030;-11
2023/01/20 11:06:57;;;;;;;8.98;5.18;;;6.00;68.00;;;;;;5026779;28;20033;-11
2023/01/20 11:09:32;;;;;;;11.43;5.63;;;6.00;68.40;;;;;;5027204;28;20104;-11
2023/01/20 11:12:02;;;;;;;10.23;5.18;;;6.10;66.30;;;;;;5026997;28;20029;-11
2023/01/20 11:14:29;;;;;;;10.93;5.80;;;6.10;67.00;;;;;;5026994;28;20034;-12
2023/01/20 11:17:07;;;;;;;8.30;4.68;;;6.20;68.40;;;;;;5026112;28;20045;-12
2023/01/20 11:19:52;;;;;;;8.70;5.30;;;6.20;68.40;;;;;;5026834;28;20034;-12
2023/01/20 11:22:33;;;;;;;12.20;6.65;;;6.30;67.70;;;;;;5026697;28;20084;-12
2023/01/20 11:25:02;;;;;;;10.95;5.85;;;6.50;66.00;;;;;;5027005;28;20143;-10
2023/01/20 11:27:41;;;;;;;8.98;5.25;;;6.80;66.50;;;;;;5062144;28;20493;-11
2023/01/20 11:30:29;;;;;;;8.07;4.80;;;7.20;66.70;;;;;;5075871;28;20102;-12
2023/01/20 11:33:16;;;;;;;7.75;4.35;;;7.80;66.50;;;;;;5074834;28;20085;-12
2023/01/20 11:36:00;;;;;;;9.50;5.20;;;8.20;63.80;;;;;;5075431;28;20048;-12
2023/01/20 11:38:44;;;;;;;7.75;4.65;;;8.40;61.50;;;;;;5075593;28;20041;-12
2023/01/20 11:41:25;;;;;;;8.50;4.70;;;8.60;60.60;;;;;;5075014;28;20028;-12
2023/01/20 11:43:54;;;;;;;7.93;4.53;;;8.90;63.50;;;;;;5075251;28;20032;-12
2023/01/20 11:46:21;;;;;;;8.32;4.57;;;9.20;62.70;;;;;;5074816;28;20040;-12
2023/01/20 11:48:48;;;;;;;6.72;4.45;;;9.40;61.00;;;;;;5075189;28;20097;-12
2023/01/20 11:51:24;;;;;;;7.63;4.90;;;9.40;58.20;;;;;;5075251;28;20059;-12
2023/01/20 11:54:07;;;;;;;7.35;4.40;;;9.40;59.60;;;;;;5075080;28;20025;-13
2023/01/20 11:56:45;;;;;;;9.63;5.00;;;9.60;58.20;;;;;;5074626;28;20036;-11
2023/01/20 11:59:48;;;;;;;6.68;4.47;;;9.90;59.40;;;;;;5074911;28;20033;-12
2023/01/20 12:02:14;;;;;;;9.75;5.53;;;10.20;57.40;;;;;;5064495;28;20037;-12
2023/01/20 12:05:01;;;;;;;7.78;4.85;;;10.30;58.20;;;;;;5074903;28;20027;-11
2023/01/20 12:07:44;;;;;;;9.55;5.25;;;10.10;58.10;;;;;;5074942;28;20025;-12
2023/01/20 12:10:17;;;;;;;6.80;4.40;;;10.00;56.70;;;;;;5074798;28;20029;-12
2023/01/20 12:12:57;;;;;;;7.43;4.78;;;10.20;59.20;;;;;;5075002;28;20041;-12
2023/01/20 12:15:26;;;;;;;8.85;4.70;;;10.40;59.40;;;;;;5074407;28;20384;-10
2023/01/20 12:18:25;;;;;;;7.53;4.50;;;10.70;57.40;;;;;;5074015;28;20489;-12
2023/01/20 12:21:00;;;;;;;8.45;4.95;;;10.80;53.80;;;;;;5074033;28;20032;-11
2023/01/20 12:23:38;;;;;;;7.60;4.57;;;10.60;55.90;;;;;;5074514;28;20376;-12
2023/01/20 12:26:05;;;;;;;8.40;4.95;;;10.60;55.10;;;;;;5074983;28;20020;-10
2023/01/20 12:28:44;;;;;;;9.63;4.70;;;10.50;54.40;;;;;;5074012;28;20035;-12
2023/01/20 12:31:12;;;;;;;6.88;4.68;;;10.50;56.80;;;;;;5074177;28;20028;-12
2023/01/20 12:33:44;;;;;;;9.05;5.20;;;10.70;54.90;;;;;;5074333;28;20093;-12
2023/01/20 12:36:30;;;;;;;6.88;4.13;;;10.80;57.10;;;;;;5074020;28;20028;-12
2023/01/20 12:39:07;;;;;;;7.28;4.50;;;11.10;58.10;;;;;;5074075;28;20036;-11
2023/01/20 12:42:06;;;;;;;6.50;4.28;;;11.50;58.00;;;;;;5073239;28;20111;-12
2023/01/20 12:44:45;;;;;;;6.97;4.30;;;12.00;57.50;;;;;;5074176;28;20032;-12
2023/01/20 12:47:35;;;;;;;7.22;4.20;;;12.40;55.50;;;;;;5073874;28;20025;-12
2023/01/20 12:50:28;;;;;;;6.60;4.00;;;12.70;47.40;;;;;;5073785;28;20032;-11
2023/01/20 12:53:25;;;;;;;8.00;4.03;;;12.90;54.90;;;;;;5073317;28;20392;-11
2023/01/20 12:56:15;;;;;;;5.82;3.65;;;12.90;51.60;;;;;;5073615;28;20385;-12
2023/01/20 12:59:03;;;;;;;5.57;3.92;;;12.60;51.10;;;;;;5073313;28;20045;-12
2023/01/20 13:01:39;;;;;;;7.18;3.85;;;12.10;52.40;;;;;;5073297;28;20090;-12
2023/01/20 13:04:14;;;;;;;6.90;3.80;;;11.70;53.20;;;;;;5073673;28;20021;-12
2023/01/20 13:06:46;;;;;;;4.90;3.50;;;11.30;53.30;;;;;;5073239;28;20031;-12
2023/01/20 13:09:54;;;;;;;5.78;3.70;;;11.10;53.30;;;;;;5073871;28;20036;-11
2023/01/20 13:13:07;;;;;;;5.32;3.83;;;11.00;53.60;;;;;;5073201;28;20020;-12
2023/01/20 13:15:35;;;;;;;4.93;3.20;;;10.90;50.90;;;;;;5011288;28;20545;-12
2023/01/20 13:18:22;;;;;;;5.13;3.60;;;10.80;54.80;;;;;;5010885;28;20580;-11
2023/01/20 13:23:21;;;;;;;4.57;3.60;;;10.80;53.80;;;;;;5107600;27;21060;-12
2023/01/20 13:25:49;;;;;;;5.25;3.35;;;10.70;55.40;;;;;;5110411;28;20028;-11
2023/01/20 13:28:23;;;;;;;4.45;3.30;;;10.60;55.10;;;;;;5110239;28;20052;-11
2023/01/20 13:30:52;;;;;;;6.30;3.58;;;10.30;54.30;;;;;;5110003;28;20019;-11
2023/01/20 13:33:40;;;;;;;7.32;4.50;;;10.00;54.20;;;;;;5110748;28;20103;-11
2023/01/20 13:36:18;;;;;;;9.20;3.90;;;9.80;53.00;;;;;;5110208;28;20020;-10
2023/01/20 13:38:46;;;;;;;5.60;3.85;;;9.80;56.70;;;;;;5110732;28;20194;-11